Crevillente, Spain
Current Conditions -  °F | °C
As of 11:30 PM on Monday 26 Jan 2015 (Local Time) from LEAL Reporting Station
Clear Clear  
Wind Chill:   Ceiling: Unl
Heat Index:   Visibility: 6mi
Dew Point:   Wind: 1mph
Humidity: 71%   Direction: NA
Pressure: 30.33"   Gusts: NA
Location:  38.25°N, 0.81°W
Report Text: LEAL 262230Z VRB01KT CAVOK 08/03 Q1027 NOSIG
Loading
Personal Weather Stations






























Interactive Weather Map New forecast layout! Learn more

10-Day Weather Forecast

Advertisements
Track Severe Weather on mobile